createdAt,value
2023-01-04T00:02:58.861Z,5.60
2023-01-04T00:08:03.987Z,4.68
2023-01-04T00:13:07.271Z,4.28
2023-01-04T00:18:11.025Z,4.05
2023-01-04T00:23:17.182Z,4.43
2023-01-04T00:28:21.067Z,4.60
2023-01-04T00:33:24.447Z,4.45
2023-01-04T00:38:29.574Z,4.40
2023-01-04T00:43:32.811Z,4.28
2023-01-04T00:48:40.236Z,5.05
2023-01-04T00:53:45.133Z,4.85
2023-01-04T00:58:48.639Z,4.57
2023-01-04T01:03:55.544Z,4.30
2023-01-04T01:09:01.064Z,5.20
2023-01-04T01:14:05.209Z,4.93
2023-01-04T01:19:09.792Z,5.03
2023-01-04T01:24:18.325Z,4.65
2023-01-04T01:29:22.160Z,4.72
2023-01-04T01:34:25.472Z,5.38
2023-01-04T01:39:30.079Z,5.60
2023-01-04T01:44:58.250Z,4.82
2023-01-04T01:50:02.660Z,5.13
2023-01-04T01:55:11.188Z,4.70
2023-01-04T02:00:16.155Z,4.82
2023-01-04T02:05:21.104Z,5.28
2023-01-04T02:10:27.115Z,4.15
2023-01-04T02:15:38.406Z,4.13
2023-01-04T02:20:48.135Z,3.95
2023-01-04T02:26:18.081Z,3.92
2023-01-04T02:31:35.408Z,5.60
2023-01-04T02:36:47.391Z,4.43
2023-01-04T02:41:57.681Z,3.83
2023-01-04T02:47:06.126Z,4.57
2023-01-04T02:52:09.488Z,4.47
2023-01-04T02:57:27.570Z,4.22
2023-01-04T03:03:07.617Z,4.63
2023-01-04T03:08:17.791Z,4.78
2023-01-04T03:13:26.983Z,4.60
2023-01-04T03:18:36.157Z,4.55
2023-01-04T03:23:58.652Z,4.10
2023-01-04T03:29:28.802Z,4.75
2023-01-04T03:34:52.327Z,4.45
2023-01-04T03:40:32.801Z,3.47
2023-01-04T03:46:01.885Z,4.43
2023-01-04T03:51:14.861Z,3.85
2023-01-04T03:56:19.875Z,4.90
2023-01-04T04:06:47.605Z,4.47
2023-01-04T04:11:51.057Z,4.30
2023-01-04T04:16:54.507Z,3.88
2023-01-04T04:21:59.390Z,4.35
2023-01-04T04:27:02.885Z,2.90
2023-01-04T04:32:06.790Z,5.22
2023-01-04T04:37:11.554Z,4.30
2023-01-04T04:42:14.762Z,4.05
2023-01-04T04:47:18.180Z,4.07
2023-01-04T04:52:22.740Z,4.72
2023-01-04T04:57:26.029Z,4.53
2023-01-04T05:02:29.882Z,4.40
2023-01-04T05:07:35.027Z,3.50
2023-01-04T05:12:58.047Z,4.03
2023-01-04T05:18:01.962Z,4.97
2023-01-04T05:23:07.383Z,4.07
2023-01-04T05:28:11.183Z,3.80
2023-01-04T05:33:14.547Z,4.07
2023-01-04T05:38:20.729Z,4.13
2023-01-04T05:43:24.692Z,3.15
2023-01-04T05:48:28.087Z,3.47
2023-01-04T05:53:32.580Z,3.67
2023-01-04T05:58:35.965Z,3.63
2023-01-04T06:03:39.559Z,3.22
2023-01-04T06:08:44.753Z,3.55
2023-01-04T06:13:48.008Z,3.65
2023-01-04T06:18:51.315Z,2.50
2023-01-04T06:23:55.989Z,3.33
2023-01-04T06:34:03.837Z,3.20
2023-01-04T06:39:09.704Z,3.58
2023-01-04T06:44:13.439Z,3.15
2023-01-04T06:49:16.704Z,2.88
2023-01-04T06:54:21.186Z,2.28
2023-01-04T06:59:24.910Z,3.05
2023-01-04T07:04:28.214Z,3.20
2023-01-04T07:09:33.120Z,2.78
2023-01-04T07:14:36.490Z,2.75
2023-01-04T07:19:40.186Z,2.67
2023-01-04T07:24:44.867Z,2.88
2023-01-04T07:29:48.114Z,2.67
2023-01-04T07:34:51.382Z,1.90
2023-01-04T07:39:56.090Z,1.98
2023-01-04T07:44:59.375Z,2.15
2023-01-04T07:50:02.624Z,2.55
2023-01-04T07:55:08.644Z,1.67
2023-01-04T08:00:13.963Z,2.15
2023-01-04T08:05:18.089Z,1.50
2023-01-04T08:10:23.214Z,1.80
2023-01-04T08:15:26.622Z,1.80
2023-01-04T08:20:30.110Z,1.65
2023-01-04T08:25:34.716Z,1.40
2023-01-04T08:30:37.816Z,1.60
2023-01-04T08:35:41.058Z,1.50
2023-01-04T08:40:58.486Z,1.95
2023-01-04T08:46:06.871Z,2.03
2023-01-04T08:51:13.556Z,1.40
2023-01-04T08:56:19.150Z,1.42
2023-01-04T09:06:27.495Z,2.22
2023-01-04T09:11:32.394Z,2.33
2023-01-04T09:16:36.881Z,1.90
2023-01-04T09:21:40.412Z,1.80
2023-01-04T09:26:47.417Z,2.20
2023-01-04T09:31:50.850Z,2.17
2023-01-04T09:36:54.175Z,2.55
2023-01-04T09:42:00.599Z,2.40
2023-01-04T09:47:08.468Z,2.50
2023-01-04T09:52:15.442Z,2.38
2023-01-04T09:57:24.701Z,2.38
2023-01-04T10:02:40.003Z,1.77
2023-01-04T10:07:43.633Z,2.55
2023-01-04T10:13:05.192Z,2.65
2023-01-04T10:23:58.714Z,2.42
2023-01-04T10:29:43.037Z,2.25
2023-01-04T10:34:48.093Z,2.22
2023-01-04T10:39:55.287Z,2.60
2023-01-04T10:45:11.963Z,2.60
2023-01-04T10:50:22.405Z,2.70
2023-01-04T10:55:30.882Z,2.60
2023-01-04T11:00:40.066Z,2.75
2023-01-04T11:05:47.290Z,2.50
2023-01-04T11:10:55.878Z,2.60
2023-01-04T11:16:02.685Z,3.97
2023-01-04T11:21:08.975Z,2.20
2023-01-04T11:26:16.691Z,2.90
2023-01-04T11:31:29.252Z,3.05
2023-01-04T11:36:35.753Z,2.92
2023-01-04T11:41:38.915Z,2.67
2023-01-04T11:46:43.398Z,2.53
2023-01-04T11:51:46.590Z,2.57
2023-01-04T11:57:01.568Z,2.35
2023-01-04T12:02:59.611Z,2.88
2023-01-04T12:07:45.337Z,2.30
2023-01-04T12:12:49.082Z,2.70
2023-01-04T12:17:58.152Z,3.30
2023-01-04T12:23:01.439Z,3.10
2023-01-04T12:28:05.414Z,2.70
2023-01-04T12:33:38.930Z,1.70
2023-01-04T12:39:04.076Z,2.67
2023-01-04T12:44:52.075Z,2.55
2023-01-04T12:50:03.107Z,2.67
2023-01-04T12:55:44.213Z,2.83
2023-01-04T13:01:18.141Z,2.40
2023-01-04T13:06:26.280Z,3.10
2023-01-04T13:11:47.879Z,2.53
2023-01-04T13:17:11.643Z,2.55
2023-01-04T13:22:28.844Z,2.73
2023-01-04T13:27:33.530Z,2.63
2023-01-04T13:32:59.425Z,2.85
2023-01-04T13:38:03.431Z,2.50
2023-01-04T13:43:24.451Z,3.15
2023-01-04T13:48:32.049Z,2.72
2023-01-04T13:53:36.729Z,2.65
2023-01-04T13:58:40.113Z,2.80
2023-01-04T14:03:46.357Z,3.20
2023-01-04T14:08:59.560Z,2.92
2023-01-04T14:14:03.992Z,2.50
2023-01-04T14:19:39.241Z,2.70
2023-01-04T14:25:10.977Z,2.40
2023-01-04T14:30:23.914Z,3.33
2023-01-04T14:35:28.213Z,2.70
2023-01-04T14:40:33.630Z,2.50
2023-01-04T14:45:36.913Z,3.20
2023-01-04T14:50:40.160Z,3.20
2023-01-04T14:55:45.775Z,3.03
2023-01-04T15:00:49.048Z,2.22
2023-01-04T15:05:52.404Z,2.58
2023-01-04T15:11:00.120Z,2.63
2023-01-04T15:16:04.113Z,3.63
2023-01-04T15:21:07.865Z,2.70
2023-01-04T15:26:12.891Z,2.22
2023-01-04T15:31:17.194Z,2.47
2023-01-04T15:36:24.070Z,2.80
2023-01-04T15:41:47.590Z,2.20
2023-01-04T15:46:52.146Z,2.17
2023-01-04T15:51:55.467Z,1.93
2023-01-04T15:57:00.133Z,1.95
2023-01-04T16:02:03.474Z,2.40
2023-01-04T16:07:07.237Z,1.80
2023-01-04T16:12:30.767Z,1.70
2023-01-04T16:17:34.029Z,1.80
2023-01-04T16:22:37.428Z,1.67
2023-01-04T16:27:43.970Z,2.05
2023-01-04T16:32:47.407Z,2.67
2023-01-04T16:37:50.692Z,1.88
2023-01-04T16:42:55.445Z,1.60
2023-01-04T16:47:59.327Z,1.80
2023-01-04T16:53:02.511Z,1.73
2023-01-04T16:58:07.048Z,1.95
2023-01-04T17:03:10.197Z,1.57
2023-01-04T17:08:13.724Z,2.05
2023-01-04T17:13:18.640Z,1.80
2023-01-04T17:18:22.782Z,1.50
2023-01-04T17:23:27.750Z,1.60
2023-01-04T17:28:32.803Z,1.83
2023-01-04T17:33:36.066Z,1.75
2023-01-04T17:38:39.879Z,2.05
2023-01-04T17:43:46.464Z,1.90
2023-01-04T17:48:59.014Z,1.80
2023-01-04T17:54:14.034Z,2.83
2023-01-04T17:59:18.639Z,1.77
2023-01-04T18:04:22.055Z,1.83
2023-01-04T18:09:27.268Z,1.73
2023-01-04T18:14:31.966Z,6.65
2023-01-04T18:19:35.642Z,2.20
2023-01-04T18:24:39.816Z,1.50
2023-01-04T18:29:45.510Z,1.73
2023-01-04T18:34:48.965Z,1.33
2023-01-04T18:39:53.014Z,1.42
2023-01-04T18:44:58.225Z,1.30
2023-01-04T18:50:01.606Z,1.30
2023-01-04T18:55:06.181Z,1.00
2023-01-04T19:00:12.694Z,1.10
2023-01-04T19:05:18.966Z,1.13
2023-01-04T19:10:22.680Z,1.30
2023-01-04T19:15:27.306Z,1.10
2023-01-04T19:20:30.853Z,1.27
2023-01-04T19:25:36.124Z,0.90
2023-01-04T19:30:44.430Z,1.33
2023-01-04T19:35:47.832Z,0.95
2023-01-04T19:40:55.493Z,1.27
2023-01-04T19:46:01.083Z,1.05
2023-01-04T19:56:10.290Z,1.20
2023-01-04T20:01:17.514Z,1.08
2023-01-04T20:06:21.519Z,1.20
2023-01-04T20:11:25.596Z,1.10
2023-01-04T20:16:30.655Z,1.30
2023-01-04T20:21:34.628Z,1.38
2023-01-04T20:26:39.898Z,1.20
2023-01-04T20:31:45.919Z,1.20
2023-01-04T20:36:49.535Z,1.48
2023-01-04T20:42:11.661Z,1.33
2023-01-04T20:47:16.553Z,1.20
2023-01-04T20:52:20.266Z,1.45
2023-01-04T20:57:23.489Z,1.25
2023-01-04T21:02:31.951Z,1.48
2023-01-04T21:07:37.914Z,1.40
2023-01-04T21:12:41.232Z,2.63
2023-01-04T21:17:47.777Z,1.80
2023-01-04T21:22:51.174Z,1.77
2023-01-04T21:27:54.455Z,1.80
2023-01-04T21:33:01.930Z,3.55
2023-01-04T21:38:06.586Z,2.40
2023-01-04T21:43:16.215Z,2.42
2023-01-04T21:48:20.725Z,1.85
2023-01-04T21:53:23.843Z,1.80
2023-01-04T21:58:27.709Z,1.60
2023-01-04T22:03:32.118Z,1.65
2023-01-04T22:08:35.786Z,1.70
2023-01-04T22:13:39.270Z,1.90
2023-01-04T22:18:47.302Z,1.83
2023-01-04T22:23:51.011Z,1.40
2023-01-04T22:28:54.151Z,1.30
2023-01-04T22:33:59.036Z,2.25
2023-01-04T22:39:02.267Z,1.10
2023-01-04T22:44:06.324Z,1.27
2023-01-04T22:49:11.041Z,0.80
2023-01-04T22:54:14.311Z,1.00
2023-01-04T22:59:17.854Z,1.60
2023-01-04T23:04:22.744Z,1.05
2023-01-04T23:09:25.959Z,1.50
2023-01-04T23:14:29.218Z,1.42
2023-01-04T23:19:34.473Z,1.40
2023-01-04T23:24:40.245Z,1.23
2023-01-04T23:29:43.663Z,1.15
2023-01-04T23:34:50.129Z,1.50
2023-01-04T23:39:53.330Z,1.45
2023-01-04T23:44:56.488Z,1.63
2023-01-04T23:50:00.964Z,1.50
2023-01-04T23:55:05.442Z,1.23
